sensor_id;sensor_type;location;lat;lon;timestamp;P1;durP1;ratioP1;P2;durP2;ratioP2
27979;SDS011;15315;50.836;4.430;2023-04-01T00:05:33;14.85;;;2.65;;
27979;SDS011;15315;50.836;4.430;2023-04-01T00:15:33;17.90;;;3.25;;
27979;SDS011;15315;50.836;4.430;2023-04-01T00:25:34;13.30;;;2.80;;
27979;SDS011;15315;50.836;4.430;2023-04-01T00:35:36;15.18;;;2.90;;
27979;SDS011;15315;50.836;4.430;2023-04-01T00:45:38;13.60;;;2.30;;
27979;SDS011;15315;50.836;4.430;2023-04-01T00:55:41;9.45;;;2.63;;
27979;SDS011;15315;50.836;4.430;2023-04-01T01:26:40;9.40;;;2.10;;
27979;SDS011;15315;50.836;4.430;2023-04-01T01:36:44;6.35;;;2.58;;
27979;SDS011;15315;50.836;4.430;2023-04-01T01:46:48;6.00;;;2.40;;
27979;SDS011;15315;50.836;4.430;2023-04-01T01:56:51;8.77;;;3.30;;
27979;SDS011;15315;50.836;4.430;2023-04-01T02:07:02;9.85;;;4.70;;
27979;SDS011;15315;50.836;4.430;2023-04-01T02:17:05;14.70;;;5.22;;
27979;SDS011;15315;50.836;4.430;2023-04-01T02:37:10;12.38;;;5.00;;
27979;SDS011;15315;50.836;4.430;2023-04-01T02:47:12;16.00;;;5.25;;
27979;SDS011;15315;50.836;4.430;2023-04-01T02:57:12;16.60;;;4.57;;
27979;SDS011;15315;50.836;4.430;2023-04-01T03:07:12;14.57;;;5.22;;
27979;SDS011;15315;50.836;4.430;2023-04-01T03:17:13;13.37;;;4.97;;
27979;SDS011;15315;50.836;4.430;2023-04-01T03:27:13;19.30;;;5.95;;
27979;SDS011;15315;50.836;4.430;2023-04-01T03:37:14;16.85;;;7.43;;
27979;SDS011;15315;50.836;4.430;2023-04-01T03:47:14;19.60;;;8.10;;
27979;SDS011;15315;50.836;4.430;2023-04-01T03:57:15;27.63;;;8.57;;
27979;SDS011;15315;50.836;4.430;2023-04-01T04:07:15;29.15;;;9.02;;
27979;SDS011;15315;50.836;4.430;2023-04-01T04:17:15;22.38;;;8.32;;
27979;SDS011;15315;50.836;4.430;2023-04-01T04:27:16;17.88;;;6.72;;
27979;SDS011;15315;50.836;4.430;2023-04-01T04:37:16;16.83;;;7.10;;
27979;SDS011;15315;50.836;4.430;2023-04-01T04:47:17;13.18;;;5.20;;
27979;SDS011;15315;50.836;4.430;2023-04-01T04:57:17;14.55;;;5.60;;
27979;SDS011;15315;50.836;4.430;2023-04-01T05:07:18;10.20;;;5.13;;
27979;SDS011;15315;50.836;4.430;2023-04-01T05:17:18;10.30;;;5.55;;
27979;SDS011;15315;50.836;4.430;2023-04-01T05:27:18;9.38;;;5.97;;
27979;SDS011;15315;50.836;4.430;2023-04-01T05:37:19;15.30;;;6.07;;
27979;SDS011;15315;50.836;4.430;2023-04-01T05:47:19;22.77;;;7.90;;
27979;SDS011;15315;50.836;4.430;2023-04-01T05:57:20;17.10;;;7.88;;
27979;SDS011;15315;50.836;4.430;2023-04-01T06:07:20;20.75;;;10.10;;
27979;SDS011;15315;50.836;4.430;2023-04-01T06:58:52;18.40;;;9.02;;
27979;SDS011;15315;50.836;4.430;2023-04-01T07:08:59;15.88;;;8.18;;
27979;SDS011;15315;50.836;4.430;2023-04-01T07:29:56;13.05;;;6.07;;
27979;SDS011;15315;50.836;4.430;2023-04-01T08:21:32;3.60;;;2.25;;
27979;SDS011;15315;50.836;4.430;2023-04-01T08:42:22;2.83;;;2.13;;
27979;SDS011;15315;50.836;4.430;2023-04-01T08:53:00;5.85;;;2.30;;
27979;SDS011;15315;50.836;4.430;2023-04-01T09:03:18;2.25;;;1.67;;
27979;SDS011;15315;50.836;4.430;2023-04-01T09:14:01;1.75;;;1.60;;
27979;SDS011;15315;50.836;4.430;2023-04-01T09:55:47;4.22;;;2.47;;
27979;SDS011;15315;50.836;4.430;2023-04-01T10:58:18;1.80;;;1.23;;
27979;SDS011;15315;50.836;4.430;2023-04-01T11:39:50;3.20;;;2.05;;
27979;SDS011;15315;50.836;4.430;2023-04-01T11:50:21;2.60;;;1.90;;
27979;SDS011;15315;50.836;4.430;2023-04-01T12:00:52;3.83;;;2.10;;
27979;SDS011;15315;50.836;4.430;2023-04-01T12:11:16;3.85;;;2.00;;
27979;SDS011;15315;50.836;4.430;2023-04-01T12:21:28;6.88;;;1.80;;
27979;SDS011;15315;50.836;4.430;2023-04-01T12:31:52;6.05;;;2.10;;
27979;SDS011;15315;50.836;4.430;2023-04-01T13:33:39;4.18;;;1.80;;
27979;SDS011;15315;50.836;4.430;2023-04-01T14:15:50;1.52;;;1.27;;
27979;SDS011;15315;50.836;4.430;2023-04-01T14:37:10;4.38;;;1.80;;
27979;SDS011;15315;50.836;4.430;2023-04-01T14:47:28;3.22;;;1.40;;
27979;SDS011;15315;50.836;4.430;2023-04-01T14:57:34;2.55;;;1.60;;
27979;SDS011;15315;50.836;4.430;2023-04-01T15:28:29;1.42;;;1.10;;
27979;SDS011;15315;50.836;4.430;2023-04-01T15:38:41;2.17;;;1.13;;
27979;SDS011;15315;50.836;4.430;2023-04-01T15:49:04;2.38;;;1.20;;
27979;SDS011;15315;50.836;4.430;2023-04-01T16:20:02;3.33;;;1.38;;
27979;SDS011;15315;50.836;4.430;2023-04-01T16:30:40;4.63;;;1.50;;
27979;SDS011;15315;50.836;4.430;2023-04-01T16:51:04;2.47;;;1.58;;
27979;SDS011;15315;50.836;4.430;2023-04-01T17:01:23;4.63;;;1.98;;
27979;SDS011;15315;50.836;4.430;2023-04-01T17:11:27;5.20;;;2.13;;
27979;SDS011;15315;50.836;4.430;2023-04-01T18:33:54;12.18;;;6.60;;
27979;SDS011;15315;50.836;4.430;2023-04-01T18:54:30;6.93;;;5.82;;
27979;SDS011;15315;50.836;4.430;2023-04-01T19:04:35;11.95;;;8.00;;
27979;SDS011;15315;50.836;4.430;2023-04-01T19:35:35;23.75;;;14.13;;
27979;SDS011;15315;50.836;4.430;2023-04-01T19:46:13;20.90;;;14.15;;
27979;SDS011;15315;50.836;4.430;2023-04-01T19:56:35;27.17;;;16.10;;
27979;SDS011;15315;50.836;4.430;2023-04-01T20:07:04;27.05;;;16.88;;
27979;SDS011;15315;50.836;4.430;2023-04-01T20:27:18;29.10;;;15.73;;
27979;SDS011;15315;50.836;4.430;2023-04-01T20:37:32;33.28;;;16.77;;
27979;SDS011;15315;50.836;4.430;2023-04-01T21:40:11;32.85;;;18.20;;
27979;SDS011;15315;50.836;4.430;2023-04-01T21:50:10;33.95;;;18.67;;
27979;SDS011;15315;50.836;4.430;2023-04-01T22:00:48;33.00;;;19.37;;
27979;SDS011;15315;50.836;4.430;2023-04-01T22:31:37;26.33;;;16.63;;
27979;SDS011;15315;50.836;4.430;2023-04-01T22:41:50;27.58;;;17.75;;
27979;SDS011;15315;50.836;4.430;2023-04-01T23:02:27;47.05;;;22.60;;
27979;SDS011;15315;50.836;4.430;2023-04-01T23:12:32;39.67;;;21.13;;
27979;SDS011;15315;50.836;4.430;2023-04-01T23:22:49;40.90;;;22.25;;
27979;SDS011;15315;50.836;4.430;2023-04-01T23:32:54;43.33;;;23.15;;
27979;SDS011;15315;50.836;4.430;2023-04-01T23:42:55;36.17;;;21.90;;
27979;SDS011;15315;50.836;4.430;2023-04-01T23:53:04;41.50;;;22.42;;
